createdAt,value
2022-10-28T00:02:12.448Z,26.50
2022-10-28T00:05:02.281Z,24.77
2022-10-28T00:07:51.595Z,19.70
2022-10-28T00:10:40.736Z,22.60
2022-10-28T00:13:31.649Z,22.58
2022-10-28T00:16:23.629Z,15.95
2022-10-28T00:19:15.550Z,14.18
2022-10-28T00:22:04.320Z,18.38
2022-10-28T00:24:53.585Z,18.90
2022-10-28T00:27:45.069Z,18.08
2022-10-28T00:30:34.011Z,19.67
2022-10-28T00:33:23.335Z,22.38
2022-10-28T00:36:21.212Z,15.75
2022-10-28T00:39:16.471Z,18.20
2022-10-28T00:42:08.270Z,17.13
2022-10-28T00:45:06.749Z,16.92
2022-10-28T00:47:56.624Z,19.65
2022-10-28T00:50:53.986Z,21.20
2022-10-28T00:53:45.100Z,16.98
2022-10-28T00:56:38.317Z,22.38
2022-10-28T00:59:29.699Z,19.75
2022-10-28T01:02:19.756Z,18.05
2022-10-28T01:05:09.586Z,17.33
2022-10-28T01:08:03.630Z,19.00
2022-10-28T01:11:14.004Z,18.63
2022-10-28T01:14:19.212Z,17.58
2022-10-28T01:17:30.304Z,15.45
2022-10-28T01:20:34.937Z,17.02
2022-10-28T01:23:44.787Z,16.77
2022-10-28T01:26:33.667Z,20.20
2022-10-28T01:29:31.654Z,21.35
2022-10-28T01:32:52.301Z,17.27
2022-10-28T01:35:56.711Z,26.50
2022-10-28T01:39:07.949Z,23.42
2022-10-28T01:42:28.588Z,24.30
2022-10-28T01:45:28.835Z,32.03
2022-10-28T01:48:23.691Z,24.15
2022-10-28T01:51:22.964Z,29.40
2022-10-28T01:54:14.137Z,25.95
2022-10-28T01:57:06.146Z,28.48
2022-10-28T01:59:55.315Z,28.05
2022-10-28T02:02:46.361Z,30.38
2022-10-28T02:05:41.131Z,27.77
2022-10-28T02:09:05.427Z,29.67
2022-10-28T02:12:18.062Z,25.20
2022-10-28T02:15:39.159Z,20.75
2022-10-28T02:18:41.730Z,23.25
2022-10-28T02:22:11.878Z,24.75
2022-10-28T02:25:22.793Z,24.00
2022-10-28T02:28:17.230Z,28.65
2022-10-28T02:31:17.626Z,24.02
2022-10-28T02:34:11.823Z,26.73
2022-10-28T02:37:03.175Z,21.92
2022-10-28T02:39:56.341Z,25.15
2022-10-28T02:42:52.926Z,19.30
2022-10-28T02:45:48.752Z,16.77
2022-10-28T02:48:49.830Z,17.92
2022-10-28T02:51:44.704Z,17.00
2022-10-28T02:54:38.291Z,18.15
2022-10-28T02:57:31.370Z,20.77
2022-10-28T03:00:26.314Z,18.05
2022-10-28T03:03:15.896Z,25.33
2022-10-28T03:06:05.808Z,26.42
2022-10-28T03:08:54.971Z,21.85
2022-10-28T03:11:43.872Z,22.63
2022-10-28T03:14:33.239Z,20.42
2022-10-28T03:17:22.860Z,23.60
2022-10-28T03:20:12.684Z,25.60
2022-10-28T03:23:02.516Z,24.92
2022-10-28T03:25:53.641Z,22.50
2022-10-28T03:28:45.760Z,23.98
2022-10-28T03:31:34.762Z,25.80
2022-10-28T03:34:24.384Z,35.75
2022-10-28T03:37:13.683Z,30.77
2022-10-28T03:40:05.816Z,36.25
2022-10-28T03:42:55.018Z,30.58
2022-10-28T03:45:45.089Z,29.35
2022-10-28T03:48:36.527Z,36.50
2022-10-28T03:51:25.478Z,33.72
2022-10-28T03:54:15.525Z,35.85
2022-10-28T03:57:04.810Z,37.60
2022-10-28T03:59:57.948Z,30.80
2022-10-28T04:02:54.736Z,38.00
2022-10-28T04:05:45.006Z,32.67
2022-10-28T04:08:34.647Z,37.65
2022-10-28T04:11:24.261Z,35.92
2022-10-28T04:14:13.789Z,41.72
2022-10-28T04:17:03.516Z,41.22
2022-10-28T04:19:52.744Z,45.00
2022-10-28T04:22:41.875Z,38.15
2022-10-28T04:25:30.904Z,36.42
2022-10-28T04:28:20.293Z,40.20
2022-10-28T04:31:10.998Z,36.92
2022-10-28T04:34:00.118Z,32.90
2022-10-28T04:36:48.977Z,30.83
2022-10-28T04:39:41.361Z,32.72
2022-10-28T04:42:30.575Z,34.72
2022-10-28T04:45:19.696Z,35.85
2022-10-28T04:48:12.808Z,34.63
2022-10-28T04:51:02.083Z,32.95
2022-10-28T04:53:50.684Z,30.77
2022-10-28T04:56:39.681Z,29.48
2022-10-28T04:59:31.345Z,33.13
2022-10-28T05:02:20.429Z,31.65
2022-10-28T05:05:10.087Z,31.65
2022-10-28T05:07:59.175Z,29.10
2022-10-28T05:10:51.136Z,36.17
2022-10-28T05:13:40.214Z,24.70
2022-10-28T05:16:29.242Z,25.20
2022-10-28T05:19:18.336Z,18.20
2022-10-28T05:22:07.720Z,17.15
2022-10-28T05:24:57.199Z,20.67
2022-10-28T05:27:49.406Z,16.92
2022-10-28T05:30:38.960Z,15.73
2022-10-28T05:33:30.458Z,16.25
2022-10-28T05:36:37.633Z,13.82
2022-10-28T05:39:26.781Z,18.13
2022-10-28T05:42:15.909Z,10.48
2022-10-28T05:45:04.928Z,7.07
2022-10-28T05:47:55.868Z,12.40
2022-10-28T05:50:45.271Z,12.75
2022-10-28T05:53:33.755Z,11.35
2022-10-28T05:56:23.346Z,11.65
2022-10-28T05:59:13.095Z,10.60
2022-10-28T06:02:02.260Z,13.80
2022-10-28T06:04:51.349Z,11.18
2022-10-28T06:07:42.242Z,9.23
2022-10-28T06:10:36.824Z,12.32
2022-10-28T06:13:24.542Z,8.18
2022-10-28T06:16:13.363Z,14.00
2022-10-28T06:19:02.883Z,12.18
2022-10-28T06:21:58.112Z,12.38
2022-10-28T06:24:47.220Z,9.43
2022-10-28T06:27:36.591Z,14.25
2022-10-28T06:30:27.057Z,16.75
2022-10-28T06:33:15.954Z,16.60
2022-10-28T06:36:08.355Z,12.77
2022-10-28T06:38:57.392Z,13.30
2022-10-28T06:41:50.073Z,18.95
2022-10-28T06:44:45.380Z,19.10
2022-10-28T06:47:40.593Z,25.58
2022-10-28T06:50:31.507Z,18.15
2022-10-28T06:53:22.349Z,23.67
2022-10-28T06:56:12.503Z,21.02
2022-10-28T06:59:01.963Z,18.10
2022-10-28T07:01:51.542Z,19.23
2022-10-28T07:04:43.691Z,30.40
2022-10-28T07:07:43.700Z,27.05
2022-10-28T07:10:33.875Z,32.35
2022-10-28T07:13:23.033Z,33.45
2022-10-28T07:16:12.098Z,38.63
2022-10-28T07:19:00.979Z,35.92
2022-10-28T07:21:51.890Z,33.38
2022-10-28T07:24:43.622Z,27.90
2022-10-28T07:27:33.241Z,32.33
2022-10-28T07:30:22.711Z,31.20
2022-10-28T07:33:12.017Z,31.52
2022-10-28T07:36:02.478Z,31.52
2022-10-28T07:38:54.615Z,30.70
2022-10-28T07:41:43.465Z,36.20
2022-10-28T07:44:32.367Z,39.38
2022-10-28T07:47:25.731Z,32.08
2022-10-28T07:50:15.106Z,37.30
2022-10-28T07:53:10.624Z,36.13
2022-10-28T07:56:04.481Z,37.47
2022-10-28T07:58:53.722Z,40.92
2022-10-28T08:01:43.193Z,39.75
2022-10-28T08:04:33.317Z,37.67
2022-10-28T08:07:24.781Z,35.15
2022-10-28T08:10:15.441Z,40.58
2022-10-28T08:13:05.246Z,46.35
2022-10-28T08:15:55.564Z,40.55
2022-10-28T08:18:44.912Z,37.35
2022-10-28T08:21:34.131Z,39.72
2022-10-28T08:24:23.421Z,31.50
2022-10-28T08:27:12.311Z,31.45
2022-10-28T08:30:01.291Z,31.15
2022-10-28T08:32:58.856Z,29.50
2022-10-28T08:35:53.740Z,27.90
2022-10-28T08:38:46.056Z,24.48
2022-10-28T08:41:47.160Z,28.23
2022-10-28T08:44:42.148Z,25.23
2022-10-28T08:47:54.823Z,27.48
2022-10-28T08:50:52.832Z,28.55
2022-10-28T08:53:59.815Z,26.50
2022-10-28T08:56:49.436Z,31.00
2022-10-28T08:59:40.682Z,32.80
2022-10-28T09:02:35.298Z,30.00
2022-10-28T09:05:27.391Z,35.55
2022-10-28T09:08:24.875Z,41.85
2022-10-28T09:11:37.107Z,31.98
2022-10-28T09:14:31.979Z,34.25
2022-10-28T09:17:26.841Z,50.03
2022-10-28T09:20:46.473Z,44.40
2022-10-28T09:23:51.274Z,34.40
2022-10-28T09:26:54.490Z,35.25
2022-10-28T09:30:06.678Z,34.00
2022-10-28T09:33:07.678Z,38.03
2022-10-28T09:35:58.443Z,33.95
2022-10-28T09:38:48.102Z,39.13
2022-10-28T09:41:40.109Z,33.05
2022-10-28T09:44:35.392Z,32.30
2022-10-28T09:47:39.400Z,34.53
2022-10-28T09:50:31.371Z,35.72
2022-10-28T09:53:59.352Z,34.92
2022-10-28T09:56:48.626Z,42.17
2022-10-28T09:59:38.598Z,37.00
2022-10-28T10:02:33.978Z,36.33
2022-10-28T10:05:24.419Z,31.55
2022-10-28T10:08:21.010Z,34.20
2022-10-28T10:11:46.838Z,36.45
2022-10-28T10:14:57.487Z,33.17
2022-10-28T10:17:49.300Z,41.67
2022-10-28T10:21:06.543Z,37.30
2022-10-28T10:23:57.110Z,38.92
2022-10-28T10:26:46.460Z,41.78
2022-10-28T10:29:37.421Z,42.53
2022-10-28T10:32:32.013Z,44.92
2022-10-28T10:35:36.489Z,42.22
2022-10-28T10:38:25.550Z,43.05
2022-10-28T10:41:35.341Z,42.55
2022-10-28T10:44:27.277Z,38.47
2022-10-28T10:47:20.917Z,41.47
2022-10-28T10:50:35.853Z,36.75
2022-10-28T10:53:26.722Z,38.28
2022-10-28T10:56:28.253Z,39.42
2022-10-28T10:59:27.246Z,48.05
2022-10-28T11:02:42.798Z,41.90
2022-10-28T11:05:37.945Z,42.83
2022-10-28T11:08:35.289Z,49.45
2022-10-28T11:11:25.591Z,47.00
2022-10-28T11:14:14.503Z,36.67
2022-10-28T11:17:25.810Z,34.60
2022-10-28T11:20:28.203Z,37.20
2022-10-28T11:23:36.139Z,36.25
2022-10-28T11:26:26.881Z,33.25
2022-10-28T11:29:19.401Z,32.45
2022-10-28T11:32:48.876Z,37.83
2022-10-28T11:36:17.312Z,37.40
2022-10-28T11:39:40.660Z,40.20
2022-10-28T11:43:08.247Z,36.70
2022-10-28T11:46:12.372Z,36.35
2022-10-28T11:49:22.421Z,36.80
2022-10-28T11:52:20.629Z,43.47
2022-10-28T11:55:24.905Z,35.05
2022-10-28T11:58:41.931Z,35.00
2022-10-28T12:01:52.737Z,32.17
2022-10-28T12:05:10.692Z,32.15
2022-10-28T12:08:15.095Z,28.95
2022-10-28T12:11:25.798Z,27.48
2022-10-28T12:14:39.788Z,28.05
2022-10-28T12:18:16.578Z,25.30
2022-10-28T12:21:26.119Z,30.52
2022-10-28T12:24:20.044Z,34.45
2022-10-28T12:27:29.531Z,30.33
2022-10-28T12:30:51.558Z,30.52
2022-10-28T12:33:50.775Z,28.10
2022-10-28T12:36:56.358Z,31.30
2022-10-28T12:40:14.570Z,28.30
2022-10-28T12:43:25.140Z,27.80
2022-10-28T12:46:50.366Z,26.25
2022-10-28T12:49:55.257Z,25.00
2022-10-28T12:53:07.295Z,32.10
2022-10-28T12:56:04.755Z,29.27
2022-10-28T12:58:53.864Z,23.42
2022-10-28T13:01:46.494Z,24.10
2022-10-28T13:04:38.541Z,24.77
2022-10-28T13:08:01.831Z,14.13
2022-10-28T13:10:59.114Z,15.02
2022-10-28T13:14:02.523Z,13.65
2022-10-28T13:17:18.876Z,13.85
2022-10-28T13:20:25.855Z,9.85
2022-10-28T13:23:41.592Z,14.93
2022-10-28T13:26:36.575Z,14.05
2022-10-28T13:29:31.724Z,10.85
2022-10-28T13:32:35.599Z,13.00
2022-10-28T13:35:29.347Z,12.25
2022-10-28T13:38:23.036Z,16.42
2022-10-28T13:41:27.383Z,16.80
2022-10-28T13:44:28.654Z,18.10
2022-10-28T13:47:36.240Z,12.18
2022-10-28T13:50:34.728Z,11.98
2022-10-28T13:53:26.600Z,15.50
2022-10-28T13:56:46.840Z,13.45
2022-10-28T13:59:54.300Z,15.57
2022-10-28T14:03:04.680Z,22.63
2022-10-28T14:05:57.785Z,10.70
2022-10-28T14:08:47.224Z,15.23
2022-10-28T14:11:36.348Z,13.02
2022-10-28T14:14:25.704Z,12.82
2022-10-28T14:17:29.049Z,9.55
2022-10-28T14:20:41.777Z,9.68
2022-10-28T14:23:30.494Z,9.60
2022-10-28T14:26:19.505Z,8.38
2022-10-28T14:29:29.621Z,10.43
2022-10-28T14:32:33.665Z,11.05
2022-10-28T14:35:32.313Z,10.43
2022-10-28T14:39:05.901Z,10.70
2022-10-28T14:42:02.059Z,11.70
2022-10-28T14:44:59.443Z,6.95
2022-10-28T14:48:03.861Z,8.43
2022-10-28T14:50:56.824Z,9.75
2022-10-28T14:53:47.070Z,10.55
2022-10-28T14:56:42.895Z,7.75
2022-10-28T14:59:38.344Z,9.85
2022-10-28T15:02:31.871Z,10.35
2022-10-28T15:05:24.314Z,9.23
2022-10-28T15:08:13.702Z,9.05
2022-10-28T15:11:05.999Z,10.07
2022-10-28T15:14:01.632Z,10.80
2022-10-28T15:16:51.141Z,9.15
2022-10-28T15:19:40.444Z,8.75
2022-10-28T15:22:35.064Z,9.02
2022-10-28T15:25:25.076Z,8.88
2022-10-28T15:28:14.982Z,6.85
2022-10-28T15:31:04.232Z,8.40
2022-10-28T15:33:53.624Z,11.45
2022-10-28T15:36:50.164Z,7.38
2022-10-28T15:39:40.873Z,8.75
2022-10-28T15:42:41.884Z,9.10
2022-10-28T15:45:34.420Z,8.57
2022-10-28T15:48:28.686Z,8.95
2022-10-28T15:51:21.426Z,7.30
2022-10-28T15:54:20.403Z,9.75
2022-10-28T15:57:30.740Z,6.15
2022-10-28T16:00:24.570Z,7.15
2022-10-28T16:03:26.407Z,8.25
2022-10-28T16:06:31.843Z,8.23
2022-10-28T16:09:35.271Z,12.13
2022-10-28T16:12:25.734Z,6.88
2022-10-28T16:15:16.279Z,8.13
2022-10-28T16:18:05.292Z,10.80
2022-10-28T16:20:56.027Z,8.30
2022-10-28T16:23:45.352Z,7.93
2022-10-28T16:26:34.442Z,10.90
2022-10-28T16:29:23.247Z,7.68
2022-10-28T16:32:13.905Z,13.55
2022-10-28T16:35:02.677Z,9.05
2022-10-28T16:37:55.370Z,13.07
2022-10-28T16:40:51.418Z,9.48
2022-10-28T16:43:41.126Z,14.52
2022-10-28T16:46:31.966Z,9.48
2022-10-28T16:49:23.705Z,8.13
2022-10-28T16:52:20.971Z,8.73
2022-10-28T16:55:18.198Z,8.68
2022-10-28T16:58:07.739Z,8.27
2022-10-28T17:00:57.505Z,8.85
2022-10-28T17:03:46.901Z,7.65
2022-10-28T17:06:35.698Z,6.95
2022-10-28T17:09:25.403Z,8.57
2022-10-28T17:12:28.100Z,4.82
2022-10-28T17:15:17.319Z,8.65
2022-10-28T17:18:06.308Z,8.43
2022-10-28T17:21:02.937Z,9.70
2022-10-28T17:23:52.639Z,7.65
2022-10-28T17:26:41.596Z,11.80
2022-10-28T17:29:31.002Z,9.00
2022-10-28T17:32:19.803Z,7.35
2022-10-28T17:35:09.273Z,5.78
2022-10-28T17:37:58.524Z,10.07
2022-10-28T17:40:56.815Z,5.45
2022-10-28T17:43:45.973Z,5.43
2022-10-28T17:46:35.107Z,6.05
2022-10-28T17:49:24.396Z,10.00
2022-10-28T17:52:14.121Z,6.93
2022-10-28T17:55:04.066Z,8.75
2022-10-28T17:57:53.499Z,7.60
2022-10-28T18:00:43.014Z,10.80
2022-10-28T18:03:35.618Z,10.15
2022-10-28T18:06:29.549Z,10.02
2022-10-28T18:09:18.277Z,15.02
2022-10-28T18:12:07.635Z,9.85
2022-10-28T18:14:58.663Z,9.90
2022-10-28T18:17:52.129Z,9.13
2022-10-28T18:20:41.271Z,9.43
2022-10-28T18:23:31.789Z,7.55
2022-10-28T18:26:23.725Z,8.35
2022-10-28T18:29:14.136Z,8.75
2022-10-28T18:32:05.529Z,6.47
2022-10-28T18:34:54.870Z,7.22
2022-10-28T18:37:44.637Z,6.90
2022-10-28T18:40:33.866Z,7.47
2022-10-28T18:43:24.063Z,6.20
2022-10-28T18:46:14.304Z,6.38
2022-10-28T18:49:03.749Z,6.45
2022-10-28T18:52:11.970Z,8.95
2022-10-28T18:55:02.035Z,11.38
2022-10-28T18:57:52.131Z,7.97
2022-10-28T19:00:41.333Z,6.22
2022-10-28T19:03:30.171Z,6.38
2022-10-28T19:06:22.470Z,5.45
2022-10-28T19:09:11.637Z,6.30
2022-10-28T19:12:00.898Z,6.28
2022-10-28T19:14:50.215Z,6.25
2022-10-28T19:17:42.525Z,7.13
2022-10-28T19:20:32.095Z,6.93
2022-10-28T19:23:21.397Z,9.55
2022-10-28T19:26:10.885Z,6.72
2022-10-28T19:29:00.219Z,6.10
2022-10-28T19:31:49.042Z,6.88
2022-10-28T19:34:41.028Z,6.93
2022-10-28T19:37:30.877Z,4.20
2022-10-28T19:40:20.464Z,9.23
2022-10-28T19:43:10.160Z,7.35
2022-10-28T19:46:15.319Z,5.82
2022-10-28T19:49:07.541Z,6.25
2022-10-28T19:51:56.900Z,6.07
2022-10-28T19:54:48.707Z,6.53
2022-10-28T19:57:41.356Z,6.53
2022-10-28T20:00:30.365Z,7.70
2022-10-28T20:03:21.649Z,7.05
2022-10-28T20:06:13.011Z,8.00
2022-10-28T20:09:04.426Z,6.63
2022-10-28T20:11:53.519Z,8.57
2022-10-28T20:14:43.915Z,7.13
2022-10-28T20:17:33.262Z,7.88
2022-10-28T20:20:22.424Z,11.93
2022-10-28T20:23:11.911Z,12.63
2022-10-28T20:26:01.448Z,12.63
2022-10-28T20:28:51.212Z,11.02
2022-10-28T20:31:44.328Z,8.82
2022-10-28T20:34:36.049Z,9.68
2022-10-28T20:37:24.919Z,8.70
2022-10-28T20:40:13.970Z,8.15
2022-10-28T20:43:03.166Z,11.18
2022-10-28T20:46:18.929Z,6.55
2022-10-28T20:49:14.817Z,6.88
2022-10-28T20:52:07.089Z,6.70
2022-10-28T20:54:55.774Z,8.50
2022-10-28T20:57:45.369Z,7.03
2022-10-28T21:00:34.207Z,7.40
2022-10-28T21:03:23.785Z,6.65
2022-10-28T21:09:07.983Z,9.43
2022-10-28T21:11:57.241Z,8.13
2022-10-28T21:14:47.175Z,9.75
2022-10-28T21:17:36.278Z,6.68
2022-10-28T21:20:25.290Z,6.53
2022-10-28T21:23:17.405Z,7.70
2022-10-28T21:26:09.796Z,8.15
2022-10-28T21:28:58.559Z,7.55
2022-10-28T21:31:48.247Z,8.75
2022-10-28T21:34:37.435Z,6.53
2022-10-28T21:37:26.454Z,5.80
2022-10-28T21:40:16.350Z,5.82
2022-10-28T21:43:05.584Z,6.93
2022-10-28T21:45:54.609Z,4.30
2022-10-28T21:48:45.242Z,7.63
2022-10-28T21:51:35.078Z,5.95
2022-10-28T21:54:24.546Z,4.38
2022-10-28T21:57:14.538Z,5.82
2022-10-28T22:00:06.887Z,7.43
2022-10-28T22:03:21.017Z,9.85
2022-10-28T22:06:11.736Z,5.95
2022-10-28T22:09:02.268Z,5.70
2022-10-28T22:11:51.299Z,4.88
2022-10-28T22:14:44.543Z,5.80
2022-10-28T22:17:34.981Z,6.35
2022-10-28T22:23:14.895Z,4.93
2022-10-28T22:26:07.431Z,7.47
2022-10-28T22:28:57.682Z,4.82
2022-10-28T22:31:48.143Z,6.38
2022-10-28T22:34:40.191Z,6.53
2022-10-28T22:37:29.378Z,5.50
2022-10-28T22:40:18.616Z,6.13
2022-10-28T22:43:07.283Z,8.23
2022-10-28T22:46:01.563Z,8.73
2022-10-28T22:48:51.064Z,5.70
2022-10-28T22:51:40.901Z,6.15
2022-10-28T22:54:30.323Z,9.63
2022-10-28T22:57:19.498Z,7.60
2022-10-28T23:00:09.438Z,6.28
2022-10-28T23:02:59.593Z,5.28
2022-10-28T23:05:50.661Z,5.72
2022-10-28T23:08:41.531Z,5.38
2022-10-28T23:11:31.087Z,3.90
2022-10-28T23:14:23.978Z,6.32
2022-10-28T23:17:12.946Z,5.05
2022-10-28T23:20:02.187Z,4.68
2022-10-28T23:22:51.605Z,5.63
2022-10-28T23:25:41.054Z,4.93
2022-10-28T23:28:30.740Z,4.20
2022-10-28T23:31:20.621Z,6.43
2022-10-28T23:34:10.123Z,4.80
2022-10-28T23:36:59.019Z,5.15
2022-10-28T23:39:53.104Z,4.63
2022-10-28T23:42:41.936Z,2.92
2022-10-28T23:45:30.704Z,4.47
2022-10-28T23:48:20.393Z,2.53
2022-10-28T23:51:11.066Z,4.45
2022-10-28T23:54:00.902Z,4.78
2022-10-28T23:56:50.244Z,5.60
2022-10-28T23:59:39.315Z,3.80
